createdAt,value
2017-12-16T00:01:58.914Z,99528
2017-12-16T00:04:27.045Z,99542
2017-12-16T00:06:55.143Z,99551
2017-12-16T00:09:23.357Z,99560
2017-12-16T00:11:52.196Z,99569
2017-12-16T00:14:21.108Z,99578
2017-12-16T00:16:50.015Z,99577
2017-12-16T00:19:19.773Z,99577
2017-12-16T00:21:47.954Z,99573
2017-12-16T00:24:16.040Z,99578
2017-12-16T00:26:45.228Z,99586
2017-12-16T00:29:15.352Z,99579
2017-12-16T00:31:43.456Z,99590
2017-12-16T00:34:11.545Z,99587
2017-12-16T00:36:39.691Z,99590
2017-12-16T00:39:07.803Z,99598
2017-12-16T00:41:35.926Z,99592
2017-12-16T00:44:04.775Z,99594
2017-12-16T00:46:32.862Z,99598
2017-12-16T00:49:01.030Z,99604
2017-12-16T00:51:29.111Z,99594
2017-12-16T00:53:57.366Z,99606
2017-12-16T00:56:25.519Z,99606
2017-12-16T00:58:53.733Z,99610
2017-12-16T01:01:22.206Z,99606
2017-12-16T01:03:50.824Z,99613
2017-12-16T01:06:18.895Z,99612
2017-12-16T01:08:47.855Z,99623
2017-12-16T01:11:15.940Z,99615
2017-12-16T01:13:44.078Z,99627
2017-12-16T01:16:12.160Z,99623
2017-12-16T01:18:40.462Z,99627
2017-12-16T01:21:09.761Z,99631
2017-12-16T01:23:38.040Z,99632
2017-12-16T01:26:06.191Z,99637
2017-12-16T01:28:34.408Z,99648
2017-12-16T01:31:03.960Z,99646
2017-12-16T01:33:49.739Z,99657
2017-12-16T01:36:35.715Z,99656
2017-12-16T01:39:03.896Z,99651
2017-12-16T01:41:32.156Z,99663
2017-12-16T01:44:00.268Z,99664
2017-12-16T01:46:28.347Z,99667
2017-12-16T01:48:57.390Z,99665
2017-12-16T01:51:25.566Z,99673
2017-12-16T01:53:53.707Z,99670
2017-12-16T01:56:21.775Z,99683
2017-12-16T01:58:49.900Z,99687
2017-12-16T02:01:21.263Z,99682
2017-12-16T02:03:50.572Z,99676
2017-12-16T02:06:18.804Z,99691
2017-12-16T02:08:46.867Z,99691
2017-12-16T02:11:17.875Z,99697
2017-12-16T02:13:45.970Z,99705
2017-12-16T02:16:14.103Z,99702
2017-12-16T02:18:42.648Z,99711
2017-12-16T02:21:10.895Z,99712
2017-12-16T02:23:39.127Z,99704
2017-12-16T02:26:07.247Z,99714
2017-12-16T02:28:35.406Z,99704
2017-12-16T02:31:03.621Z,99707
2017-12-16T02:33:32.623Z,99716
2017-12-16T02:36:00.695Z,99716
2017-12-16T02:38:28.863Z,99719
2017-12-16T02:40:56.988Z,99719
2017-12-16T02:43:25.109Z,99725
2017-12-16T02:45:53.335Z,99724
2017-12-16T02:48:21.430Z,99728
2017-12-16T02:50:49.587Z,99726
2017-12-16T02:53:17.699Z,99735
2017-12-16T02:55:45.828Z,99730
2017-12-16T02:58:13.948Z,99735
2017-12-16T03:00:42.906Z,99734
2017-12-16T03:03:11.036Z,99737
2017-12-16T03:05:39.156Z,99728
2017-12-16T03:08:07.261Z,99740
2017-12-16T03:10:36.404Z,99747
2017-12-16T03:13:04.559Z,99742
2017-12-16T03:15:32.760Z,99756
2017-12-16T03:18:00.872Z,99756
2017-12-16T03:20:28.981Z,99761
2017-12-16T03:22:57.212Z,99766
2017-12-16T03:25:25.300Z,99771
2017-12-16T03:27:53.425Z,99771
2017-12-16T03:30:21.608Z,99778
2017-12-16T03:32:49.696Z,99783
2017-12-16T03:35:18.275Z,99773
2017-12-16T03:37:46.369Z,99780
2017-12-16T03:40:14.503Z,99788
2017-12-16T03:42:42.579Z,99782
2017-12-16T03:45:10.744Z,99798
2017-12-16T03:47:38.835Z,99788
2017-12-16T03:50:07.853Z,99795
2017-12-16T03:52:36.955Z,99803
2017-12-16T03:55:05.897Z,99809
2017-12-16T03:57:33.985Z,99812
2017-12-16T04:00:02.263Z,99819
2017-12-16T04:02:30.467Z,99821
2017-12-16T04:04:58.619Z,99825
2017-12-16T04:07:26.690Z,99825
2017-12-16T04:09:54.848Z,99827
2017-12-16T04:12:22.952Z,99825
2017-12-16T04:14:51.522Z,99822
2017-12-16T04:17:19.615Z,99829
2017-12-16T04:19:48.264Z,99820
2017-12-16T04:22:17.091Z,99833
2017-12-16T04:24:46.570Z,99836
2017-12-16T04:27:14.747Z,99833
2017-12-16T04:29:43.531Z,99826
2017-12-16T04:32:11.858Z,99830
2017-12-16T04:34:39.982Z,99837
2017-12-16T04:37:08.127Z,99830
2017-12-16T04:39:37.354Z,99830
2017-12-16T04:42:05.496Z,99847
2017-12-16T04:44:33.618Z,99839
2017-12-16T04:47:02.520Z,99846
2017-12-16T04:49:31.444Z,99845
2017-12-16T04:51:59.655Z,99857
2017-12-16T04:54:27.788Z,99857
2017-12-16T04:56:56.086Z,99863
2017-12-16T04:59:24.288Z,99861
2017-12-16T05:01:53.179Z,99849
2017-12-16T05:04:21.312Z,99853
2017-12-16T05:06:49.747Z,99856
2017-12-16T05:09:18.595Z,99866
2017-12-16T05:11:46.911Z,99859
2017-12-16T05:14:15.763Z,99865
2017-12-16T05:16:43.924Z,99880
2017-12-16T05:19:12.103Z,99874
2017-12-16T05:21:40.623Z,99878
2017-12-16T05:24:08.812Z,99881
2017-12-16T05:26:36.930Z,99887
2017-12-16T05:29:05.419Z,99876
2017-12-16T05:31:33.521Z,99882
2017-12-16T05:34:01.639Z,99891
2017-12-16T05:36:29.771Z,99892
2017-12-16T05:38:57.944Z,99883
2017-12-16T05:41:26.127Z,99891
2017-12-16T05:43:55.026Z,99906
2017-12-16T05:46:23.116Z,99894
2017-12-16T05:48:51.223Z,99898
2017-12-16T05:51:19.303Z,99920
2017-12-16T05:53:47.415Z,99915
2017-12-16T05:56:15.495Z,99920
2017-12-16T05:58:44.568Z,99917
2017-12-16T06:01:12.966Z,99925
2017-12-16T06:03:41.902Z,99931
2017-12-16T06:06:10.107Z,99928
2017-12-16T06:08:38.488Z,99935
2017-12-16T06:11:06.620Z,99935
2017-12-16T06:13:34.748Z,99929
2017-12-16T06:16:03.587Z,99932
2017-12-16T06:18:32.175Z,99937
2017-12-16T06:21:00.334Z,99941
2017-12-16T06:23:28.564Z,99941
2017-12-16T06:25:57.783Z,99953
2017-12-16T06:28:26.922Z,99946
2017-12-16T06:30:57.260Z,99961
2017-12-16T06:33:25.376Z,99963
2017-12-16T06:35:53.624Z,99972
2017-12-16T06:38:21.704Z,99984
2017-12-16T06:40:49.993Z,99970
2017-12-16T06:43:18.868Z,99988
2017-12-16T06:45:47.601Z,99977
2017-12-16T06:48:16.075Z,99980
2017-12-16T06:50:44.276Z,99979
2017-12-16T06:53:12.379Z,99988
2017-12-16T06:55:40.553Z,99989
2017-12-16T06:58:08.696Z,99993
2017-12-16T07:00:36.799Z,99975
2017-12-16T07:03:04.914Z,99993
2017-12-16T07:05:33.098Z,99991
2017-12-16T07:08:01.172Z,99997
2017-12-16T07:10:29.291Z,100007
2017-12-16T07:12:57.471Z,99864
2017-12-16T07:15:25.546Z,100014
2017-12-16T07:17:53.848Z,100019
2017-12-16T07:20:21.995Z,100015
2017-12-16T07:22:50.215Z,100029
2017-12-16T07:25:18.441Z,100040
2017-12-16T07:27:46.548Z,100034
2017-12-16T07:30:14.886Z,100030
2017-12-16T07:32:43.019Z,100038
2017-12-16T07:35:11.235Z,100046
2017-12-16T07:37:39.540Z,100043
2017-12-16T07:40:07.701Z,100049
2017-12-16T07:42:36.657Z,100061
2017-12-16T07:45:04.913Z,100054
2017-12-16T07:47:33.020Z,100070
2017-12-16T07:50:01.167Z,100067
2017-12-16T07:52:30.932Z,100073
2017-12-16T07:54:59.048Z,100080
2017-12-16T07:57:27.155Z,100078
2017-12-16T07:59:55.331Z,100092
2017-12-16T08:02:23.426Z,100093
2017-12-16T08:04:52.300Z,100096
2017-12-16T08:07:20.408Z,100113
2017-12-16T08:09:48.580Z,100113
2017-12-16T08:12:16.630Z,100115
2017-12-16T08:14:44.725Z,100123
2017-12-16T08:17:12.876Z,100123
2017-12-16T08:19:41.777Z,100132
2017-12-16T08:22:09.964Z,100130
2017-12-16T08:24:38.203Z,100148
2017-12-16T08:27:06.492Z,100137
2017-12-16T08:29:35.341Z,100144
2017-12-16T08:32:03.540Z,100141
2017-12-16T08:34:32.648Z,100148
2017-12-16T08:37:01.560Z,100165
2017-12-16T08:39:29.688Z,100155
2017-12-16T08:41:58.834Z,100167
2017-12-16T08:44:26.958Z,100178
2017-12-16T08:46:55.133Z,100166
2017-12-16T08:49:24.179Z,100182
2017-12-16T08:51:52.291Z,100186
2017-12-16T08:54:20.424Z,100191
2017-12-16T08:56:48.510Z,100193
2017-12-16T08:59:16.633Z,100196
2017-12-16T09:01:44.744Z,100193
2017-12-16T09:04:12.983Z,100205
2017-12-16T09:06:41.228Z,100213
2017-12-16T09:09:09.311Z,100214
2017-12-16T09:11:38.360Z,100214
2017-12-16T09:14:06.503Z,100223
2017-12-16T09:16:34.648Z,100225
2017-12-16T09:19:02.727Z,100227
2017-12-16T09:21:34.582Z,100234
2017-12-16T09:24:02.883Z,100245
2017-12-16T09:26:32.809Z,100240
2017-12-16T09:29:01.778Z,100248
2017-12-16T09:31:29.860Z,100255
2017-12-16T09:33:58.000Z,100247
2017-12-16T09:40:13.883Z,100261
2017-12-16T09:46:45.967Z,100282
2017-12-16T09:49:15.170Z,100280
2017-12-16T09:51:43.445Z,100274
2017-12-16T09:54:12.328Z,100278
2017-12-16T09:56:40.479Z,100268
2017-12-16T09:59:08.640Z,100275
2017-12-16T10:01:36.829Z,100282
2017-12-16T10:04:04.988Z,100283
2017-12-16T10:06:33.124Z,100277
2017-12-16T10:09:01.266Z,100285
2017-12-16T10:11:29.378Z,100274
2017-12-16T10:13:57.520Z,100273
2017-12-16T10:19:42.499Z,100280
2017-12-16T10:22:10.675Z,100288
2017-12-16T10:24:39.858Z,100293
2017-12-16T10:27:08.912Z,100295
2017-12-16T10:29:37.008Z,100299
2017-12-16T10:32:05.224Z,100297
2017-12-16T10:34:34.074Z,100301
2017-12-16T10:37:02.177Z,100298
2017-12-16T10:39:31.055Z,100303
2017-12-16T10:41:59.366Z,100298
2017-12-16T10:44:27.738Z,100303
2017-12-16T10:46:56.808Z,100300
2017-12-16T10:49:24.931Z,100298
2017-12-16T10:51:53.535Z,100300
2017-12-16T10:54:21.856Z,100303
2017-12-16T10:56:49.936Z,100304
2017-12-16T10:59:18.888Z,100301
2017-12-16T11:01:46.983Z,100308
2017-12-16T11:04:15.075Z,100322
2017-12-16T11:06:44.015Z,100309
2017-12-16T11:09:12.154Z,100314
2017-12-16T11:11:40.243Z,100315
2017-12-16T11:14:08.524Z,100319
2017-12-16T11:16:37.588Z,100330
2017-12-16T11:19:06.505Z,100322
2017-12-16T11:21:34.668Z,100325
2017-12-16T11:24:02.916Z,100331
2017-12-16T11:26:32.007Z,100332
2017-12-16T11:29:00.275Z,100333
2017-12-16T11:31:28.387Z,100333
2017-12-16T11:33:56.471Z,100331
2017-12-16T11:36:25.204Z,100345
2017-12-16T11:38:53.391Z,100346
2017-12-16T11:41:26.029Z,100345
2017-12-16T11:43:54.216Z,100342
2017-12-16T11:46:22.379Z,100342
2017-12-16T11:48:50.604Z,100344
2017-12-16T11:51:18.889Z,100344
2017-12-16T11:53:47.769Z,100348
2017-12-16T11:56:16.666Z,100353
2017-12-16T11:58:45.552Z,100357
2017-12-16T12:01:15.329Z,100350
2017-12-16T12:03:43.492Z,100356
2017-12-16T12:06:11.583Z,100355
2017-12-16T12:08:39.738Z,100345
2017-12-16T12:11:07.890Z,100350
2017-12-16T12:13:36.016Z,100365
2017-12-16T12:16:04.157Z,100355
2017-12-16T12:18:34.258Z,100356
2017-12-16T12:21:02.824Z,100360
2017-12-16T12:23:30.939Z,100367
2017-12-16T12:25:59.068Z,100371
2017-12-16T12:28:27.216Z,100380
2017-12-16T12:30:56.094Z,100375
2017-12-16T12:33:24.202Z,100363
2017-12-16T12:35:53.208Z,100351
2017-12-16T12:38:21.323Z,100362
2017-12-16T12:40:49.394Z,100367
2017-12-16T12:43:17.592Z,100376
2017-12-16T12:45:46.752Z,100372
2017-12-16T12:48:15.852Z,100369
2017-12-16T12:50:44.172Z,100372
2017-12-16T12:53:12.288Z,100384
2017-12-16T12:55:40.398Z,100375
2017-12-16T12:58:08.530Z,100374
2017-12-16T13:00:36.797Z,100390
2017-12-16T13:03:05.019Z,100393
2017-12-16T13:05:33.163Z,100387
2017-12-16T13:08:01.285Z,100394
2017-12-16T13:10:30.209Z,100391
2017-12-16T13:12:58.343Z,100392
2017-12-16T13:15:26.449Z,100383
2017-12-16T13:17:54.578Z,100403
2017-12-16T13:20:22.775Z,100395
2017-12-16T13:22:50.856Z,100408
2017-12-16T13:25:20.543Z,100395
2017-12-16T13:27:48.703Z,100413
2017-12-16T13:30:16.844Z,100397
2017-12-16T13:32:44.964Z,100403
2017-12-16T13:35:13.811Z,100401
2017-12-16T13:37:42.089Z,100422
2017-12-16T13:40:10.310Z,100412
2017-12-16T13:42:39.262Z,100419
2017-12-16T13:45:10.952Z,100408
2017-12-16T13:47:39.650Z,100414
2017-12-16T13:50:08.722Z,100413
2017-12-16T13:52:36.912Z,100422
2017-12-16T13:55:05.056Z,100425
2017-12-16T13:57:33.245Z,100419
2017-12-16T14:00:01.407Z,100424
2017-12-16T14:02:29.624Z,100426
2017-12-16T14:04:58.524Z,100430
2017-12-16T14:07:26.652Z,100434
2017-12-16T14:09:54.847Z,100447
2017-12-16T14:12:23.688Z,100446
2017-12-16T14:14:51.917Z,100441
2017-12-16T14:17:20.088Z,100448
2017-12-16T14:19:48.939Z,100444
2017-12-16T14:22:17.107Z,100454
2017-12-16T14:24:45.219Z,100449
2017-12-16T14:27:13.361Z,100464
2017-12-16T14:29:41.457Z,100456
2017-12-16T14:32:09.616Z,100448
2017-12-16T14:34:37.792Z,100459
2017-12-16T14:37:06.289Z,100460
2017-12-16T14:39:34.443Z,100470
2017-12-16T14:42:02.555Z,100470
2017-12-16T14:44:31.404Z,100472
2017-12-16T14:46:59.555Z,100474
2017-12-16T14:49:27.636Z,100470
2017-12-16T14:51:55.830Z,100479
2017-12-16T14:54:23.977Z,100486
2017-12-16T14:56:52.473Z,100498
2017-12-16T14:59:20.550Z,100509
2017-12-16T15:01:48.871Z,100525
2017-12-16T15:04:17.019Z,100530
2017-12-16T15:06:45.154Z,100517
2017-12-16T15:09:13.342Z,100518
2017-12-16T15:11:41.502Z,100526
2017-12-16T15:14:09.679Z,100528
2017-12-16T15:16:37.875Z,100520
2017-12-16T15:19:05.993Z,100528
2017-12-16T15:21:34.243Z,100533
2017-12-16T15:24:02.367Z,100539
2017-12-16T15:26:30.508Z,100543
2017-12-16T15:28:59.439Z,100545
2017-12-16T15:31:27.610Z,100550
2017-12-16T15:33:55.815Z,100552
2017-12-16T15:36:24.318Z,100549
2017-12-16T15:38:52.427Z,100561
2017-12-16T15:41:20.815Z,100563
2017-12-16T15:43:48.893Z,100558
2017-12-16T15:46:16.991Z,100560
2017-12-16T15:48:45.137Z,100559
2017-12-16T15:51:13.331Z,100562
2017-12-16T15:53:41.488Z,100576
2017-12-16T15:56:09.818Z,100580
2017-12-16T15:58:38.883Z,100578
2017-12-16T16:01:07.214Z,100595
2017-12-16T16:03:35.442Z,100589
2017-12-16T16:06:03.546Z,100595
2017-12-16T16:08:32.408Z,100602
2017-12-16T16:11:00.516Z,100600
2017-12-16T16:13:28.610Z,100599
2017-12-16T16:15:56.761Z,100611
2017-12-16T16:18:25.639Z,100607
2017-12-16T16:20:54.620Z,100611
2017-12-16T16:23:23.687Z,100631
2017-12-16T16:25:51.823Z,100613
2017-12-16T16:28:19.979Z,100620
2017-12-16T16:30:48.811Z,100625
2017-12-16T16:33:17.012Z,100627
2017-12-16T16:35:45.087Z,100625
2017-12-16T16:38:13.244Z,100628
2017-12-16T16:40:41.336Z,100646
2017-12-16T16:43:09.507Z,100633
2017-12-16T16:45:38.004Z,100646
2017-12-16T16:48:06.182Z,100642
2017-12-16T16:50:34.248Z,100650
2017-12-16T16:53:02.621Z,100648
2017-12-16T16:55:30.751Z,100655
2017-12-16T16:57:58.864Z,100656
2017-12-16T17:00:27.232Z,100661
2017-12-16T17:02:55.340Z,100665
2017-12-16T17:05:26.337Z,100670
2017-12-16T17:14:38.815Z,100677
2017-12-16T17:17:06.935Z,100679
2017-12-16T17:19:35.061Z,100690
2017-12-16T17:22:03.358Z,100681
2017-12-16T17:24:32.300Z,100673
2017-12-16T17:27:00.366Z,100694
2017-12-16T17:29:28.477Z,100690
2017-12-16T17:31:56.635Z,100693
2017-12-16T17:34:24.845Z,100703
2017-12-16T17:36:54.855Z,100702
2017-12-16T17:39:23.790Z,100710
2017-12-16T17:41:51.908Z,100712
2017-12-16T17:44:21.079Z,100709
2017-12-16T17:46:49.191Z,100716
2017-12-16T17:49:17.315Z,100724
2017-12-16T17:51:45.435Z,100732
2017-12-16T17:54:13.503Z,100739
2017-12-16T17:56:42.385Z,100737
2017-12-16T17:59:10.521Z,100740
2017-12-16T18:01:39.993Z,100741
2017-12-16T18:04:08.219Z,100747
2017-12-16T18:06:36.354Z,100740
2017-12-16T18:09:05.384Z,100740
2017-12-16T18:11:33.460Z,100746
2017-12-16T18:14:01.532Z,100750
2017-12-16T18:16:29.653Z,100756
2017-12-16T18:18:57.751Z,100751
2017-12-16T18:21:25.834Z,100751
2017-12-16T18:23:53.976Z,100750
2017-12-16T18:26:22.097Z,100758
2017-12-16T18:28:50.179Z,100759
2017-12-16T18:31:18.283Z,100758
2017-12-16T18:33:46.445Z,100767
2017-12-16T18:36:15.430Z,100771
2017-12-16T18:38:43.591Z,100774
2017-12-16T18:41:11.681Z,100782
2017-12-16T18:43:40.624Z,100783
2017-12-16T18:46:08.806Z,100773
2017-12-16T18:48:37.287Z,100773
2017-12-16T18:51:06.368Z,100784
2017-12-16T18:53:34.484Z,100789
2017-12-16T18:56:02.624Z,100791
2017-12-16T18:58:30.973Z,100797
2017-12-16T19:00:59.206Z,100789
2017-12-16T19:03:28.519Z,100789
2017-12-16T19:05:56.735Z,100799
2017-12-16T19:08:25.318Z,100804
2017-12-16T19:10:56.607Z,100806
2017-12-16T19:13:24.851Z,100816
2017-12-16T19:15:54.026Z,100819
2017-12-16T19:18:23.257Z,100820
2017-12-16T19:26:29.259Z,100834
2017-12-16T19:28:57.423Z,100837
2017-12-16T19:31:25.492Z,100827
2017-12-16T19:33:53.622Z,100826
2017-12-16T19:39:13.037Z,100827
2017-12-16T19:41:41.204Z,100831
2017-12-16T19:44:09.434Z,100851
2017-12-16T19:46:37.511Z,100849
2017-12-16T19:49:05.675Z,100843
2017-12-16T19:51:33.765Z,100852
2017-12-16T19:54:02.148Z,100846
2017-12-16T19:56:30.522Z,100845
2017-12-16T19:58:58.621Z,100843
2017-12-16T20:01:27.695Z,100848
2017-12-16T20:07:11.041Z,100854
2017-12-16T20:09:42.375Z,100861
2017-12-16T20:12:10.591Z,100863
2017-12-16T20:14:38.696Z,100859
2017-12-16T20:17:06.850Z,100865
2017-12-16T20:19:35.084Z,100872
2017-12-16T20:22:03.241Z,100870
2017-12-16T20:24:31.447Z,100868
2017-12-16T20:26:59.608Z,100876
2017-12-16T20:32:06.884Z,100876
2017-12-16T20:34:35.084Z,100875
2017-12-16T20:37:03.223Z,100873
2017-12-16T20:39:32.204Z,100886
2017-12-16T20:42:00.339Z,100883
2017-12-16T20:44:29.176Z,100882
2017-12-16T20:46:57.419Z,100882
2017-12-16T20:49:25.529Z,100885
2017-12-16T20:51:53.625Z,100886
2017-12-16T20:54:21.736Z,100880
2017-12-16T20:56:50.501Z,100892
2017-12-16T20:59:19.365Z,100895
2017-12-16T21:01:47.493Z,100892
2017-12-16T21:04:15.628Z,100899
2017-12-16T21:06:43.698Z,100899
2017-12-16T21:09:11.852Z,100907
2017-12-16T21:11:40.680Z,100904
2017-12-16T21:14:09.525Z,100916
2017-12-16T21:16:37.841Z,100919
2017-12-16T21:19:05.999Z,100912
2017-12-16T21:21:35.288Z,100917
2017-12-16T21:24:05.282Z,100916
2017-12-16T21:26:33.405Z,100924
2017-12-16T21:29:02.716Z,100919
2017-12-16T21:31:30.945Z,100922
2017-12-16T21:33:59.098Z,100928
2017-12-16T21:36:31.542Z,100920
2017-12-16T21:38:59.723Z,100930
2017-12-16T21:41:28.904Z,100930
2017-12-16T21:43:59.848Z,100928
2017-12-16T21:46:28.113Z,100938
2017-12-16T21:48:57.256Z,100933
2017-12-16T21:51:27.196Z,100942
2017-12-16T21:53:57.414Z,100943
2017-12-16T21:56:25.550Z,100945
2017-12-16T21:58:53.773Z,100938
2017-12-16T22:01:21.984Z,100948
2017-12-16T22:03:50.990Z,100963
2017-12-16T22:06:22.012Z,100955
2017-12-16T22:12:06.570Z,100957
2017-12-16T22:14:34.732Z,100959
2017-12-16T22:17:05.603Z,100958
2017-12-16T22:19:33.853Z,100953
2017-12-16T22:22:02.064Z,100950
2017-12-16T22:24:30.998Z,100951
2017-12-16T22:27:12.065Z,100955
2017-12-16T22:29:40.300Z,100962
2017-12-16T22:32:10.528Z,100969
2017-12-16T22:34:40.508Z,100961
2017-12-16T22:37:08.695Z,100968
2017-12-16T22:39:37.803Z,100965
2017-12-16T22:42:11.092Z,100962
2017-12-16T22:44:42.840Z,100965
2017-12-16T22:47:14.147Z,100970
2017-12-16T22:49:44.716Z,100981
2017-12-16T22:52:12.983Z,100977
2017-12-16T22:57:58.758Z,100985
2017-12-16T23:00:27.894Z,100977
2017-12-16T23:02:58.695Z,100990
2017-12-16T23:05:28.767Z,100985
2017-12-16T23:07:57.673Z,100983
2017-12-16T23:10:25.932Z,100994
2017-12-16T23:12:58.205Z,100998
2017-12-16T23:15:27.811Z,100984
2017-12-16T23:17:56.656Z,100992
2017-12-16T23:20:24.839Z,100995
2017-12-16T23:22:53.141Z,101000
2017-12-16T23:25:21.384Z,100996
2017-12-16T23:27:49.593Z,100983
2017-12-16T23:30:18.948Z,101002
2017-12-16T23:32:50.493Z,100991
2017-12-16T23:35:18.637Z,101011
2017-12-16T23:37:46.850Z,101011
2017-12-16T23:40:18.225Z,101001
2017-12-16T23:42:46.526Z,101004
2017-12-16T23:45:15.880Z,101012
2017-12-16T23:47:45.056Z,101009
2017-12-16T23:50:13.447Z,101006
2017-12-16T23:52:41.641Z,101000
2017-12-16T23:55:09.933Z,100996
2017-12-16T23:57:38.123Z,101007
